« Back
NWS Peachtree City, Ga » Text Product » AHN Terminal Aerodrome Forecast


Printer-friendly Version
Current Version              Previous Versions:   1  2  3  4  5  6  7  8  9  

Terminal Aerodrome Forecast

393
FTUS42 KFFC 251100
TAFAHN
TAF
KAHN 251130Z 2512/2612 28003KT P6SM SKC
     FM251500 33005KT P6SM SKC
     FM260400 31004KT P6SM FEW025=

USA.gov is the U.S. government's official web portal to all federal, state and local government web resources and services.